Time;durP1;ratioP1;P1;durP2;ratioP2;P2;SDS_P1;SDS_P2;PMS_P1;PMS_P2;Temp;Humidity;BMP_temperature;BMP_pressure;BME280_temperature;BME280_humidity;BME280_pressure;Samples;Min_cycle;Max_cycle;Signal;HPM_P1;HPM_P2
2021/04/02 00:00:01;;;;;;;;;;;;;;;11.67;59.47;98398.48;1855920;77;20142;-66
2021/04/02 00:02:31;;;;;;;;;;;;;;;11.70;59.76;98407.87;1822818;77;20242;-66
2021/04/02 00:04:59;;;;;;;;;;;;;;;11.70;61.64;98402.06;1862030;77;20222;-66
2021/04/02 00:07:27;;;;;;;;;;;;;;;11.65;63.12;98400.47;1809126;77;20173;-66
2021/04/02 00:09:54;;;;;;;;;;;;;;;11.57;63.31;98405.89;1849895;77;20241;-66
2021/04/02 00:12:22;;;;;;;;;;;;;;;11.48;63.24;98399.87;1824774;77;20233;-65
2021/04/02 00:14:50;;;;;;;;;;;;;;;11.41;63.48;98393.70;1845992;77;20130;-66
2021/04/02 00:17:18;;;;;;;;;;;;;;;11.34;64.21;98397.56;1847480;77;20139;-66
2021/04/02 00:19:46;;;;;;;;;;;;;;;11.27;64.17;98396.14;1837272;77;20158;-66
2021/04/02 00:22:14;;;;;;;;;;;;;;;11.22;64.32;98385.31;1857530;77;20134;-66
2021/04/02 00:24:42;;;;;;;;;;;;;;;11.18;63.55;98389.81;1834091;77;20225;-66
2021/04/02 00:27:11;;;;;;;;;;;;;;;11.16;62.80;98373.30;1833503;77;20130;-66
2021/04/02 00:29:39;;;;;;;;;;;;;;;11.13;62.63;98374.51;1834019;77;20119;-66
2021/04/02 00:32:07;;;;;;;;;;;;;;;11.12;62.72;98370.72;1840629;77;20133;-66
2021/04/02 00:34:36;;;;;;;;;;;;;;;11.11;63.23;98362.45;1866495;77;20162;-66
2021/04/02 00:37:04;;;;;;;;;;;;;;;11.08;65.70;98373.72;1841618;77;20398;-66
2021/04/02 00:39:32;;;;;;;;;;;;;;;11.04;66.45;98351.80;1834143;77;20394;-67
2021/04/02 00:41:59;;;;;;;;;;;;;;;10.99;66.82;98351.00;1866184;77;20157;-66
2021/04/02 00:44:29;;;;;;;;;;;;;;;10.95;66.09;98331.22;1861699;77;20237;-66
2021/04/02 00:46:57;;;;;;;;;;;;;;;10.91;65.96;98343.17;1783581;80;20132;-66
2021/04/02 00:49:24;;;;;;;;;;;;;;;10.87;65.24;98335.30;1822301;78;20412;-66
2021/04/02 00:51:52;;;;;;;;;;;;;;;10.84;65.05;98310.52;1811000;78;20177;-66
2021/04/02 00:54:20;;;;;;;;;;;;;;;10.82;64.81;98307.24;1796017;78;20132;-66
2021/04/02 00:56:48;;;;;;;;;;;;;;;10.79;64.50;98316.37;1821305;78;20141;-66
2021/04/02 00:59:15;;;;;;;;;;;;;;;10.79;64.30;98306.28;1776941;79;20232;-66
2021/04/02 01:01:43;;;;;;;;;;;;;;;10.75;64.57;98307.66;1798414;78;20524;-68
2021/04/02 01:04:11;;;;;;;;;;;;;;;10.72;64.28;98305.36;1790588;79;20184;-66
2021/04/02 01:06:39;;;;;;;;;;;;;;;10.67;64.11;98297.48;1806332;78;20484;-66
2021/04/02 01:09:06;;;;;;;;;;;;;;;10.65;63.76;98300.81;1803316;78;20462;-67
2021/04/02 01:11:34;;;;;;;;;;;;;;;10.62;63.85;98286.66;1819998;78;20404;-67
2021/04/02 01:14:03;;;;;;;;;;;;;;;10.58;63.64;98285.35;1787464;79;20154;-67
2021/04/02 01:16:34;;;;;;;;;;;;;;;10.56;63.62;98289.19;1818706;78;20272;-66
2021/04/02 01:19:26;;;;;;;;;;;;;;;10.52;63.67;98288.73;1821439;78;20157;-66
2021/04/02 01:21:57;;;;;;;;;;;;;;;10.46;64.03;98286.31;1792613;78;20141;-66
2021/04/02 01:24:47;;;;;;;;;;;;;;;10.40;64.11;98290.16;1802203;78;20149;-66
2021/04/02 01:27:28;;;;;;;;;;;;;;;10.35;64.25;98297.33;1802699;78;20121;-66
2021/04/02 01:29:57;;;;;;;;;;;;;;;10.29;64.41;98292.23;1802216;78;20141;-66
2021/04/02 01:32:28;;;;;;;;;;;;;;;10.25;64.51;98288.31;1794866;78;20232;-66
2021/04/02 01:35:03;;;;;;;;;;;;;;;10.21;64.53;98294.97;1808715;78;20431;-67
2021/04/02 01:37:34;;;;;;;;;;;;;;;10.17;64.85;98285.73;1811330;78;20137;-66
2021/04/02 01:40:06;;;;;;;;;;;;;;;10.13;65.15;98279.17;1781258;78;20249;-67
2021/04/02 01:42:35;;;;;;;;;;;;;;;10.09;65.32;98282.67;1804025;78;20141;-67
2021/04/02 01:45:03;;;;;;;;;;;;;;;10.05;65.58;98271.33;1818374;78;20267;-66
2021/04/02 01:47:31;;;;;;;;;;;;;;;10.03;65.91;98264.91;1810373;78;20161;-66
2021/04/02 01:50:01;;;;;;;;;;;;;;;10.02;66.02;98259.29;1788976;78;20479;-67
2021/04/02 01:52:30;;;;;;;;;;;;;;;10.00;66.37;98256.00;1802760;78;20220;-66
2021/04/02 01:54:58;;;;;;;;;;;;;;;9.98;66.46;98254.55;1820057;78;20407;-67
2021/04/02 01:57:28;;;;;;;;;;;;;;;9.97;66.55;98254.22;1809212;78;20141;-66
2021/04/02 01:59:55;;;;;;;;;;;;;;;9.96;66.84;98259.20;1796350;78;20247;-67
2021/04/02 02:02:23;;;;;;;;;;;;;;;9.94;67.23;98261.20;1800733;78;20243;-67
2021/04/02 02:04:51;;;;;;;;;;;;;;;9.92;67.44;98258.73;1811181;78;20219;-66
2021/04/02 02:07:21;;;;;;;;;;;;;;;9.90;67.50;98254.95;1825883;79;20160;-66
2021/04/02 02:09:52;;;;;;;;;;;;;;;9.89;67.65;98252.48;1823659;78;20165;-66
2021/04/02 02:12:30;;;;;;;;;;;;;;;9.87;67.97;98262.40;1815727;78;20145;-67
2021/04/02 02:15:01;;;;;;;;;;;;;;;9.85;67.97;98249.38;1793418;78;20125;-66
2021/04/02 02:17:30;;;;;;;;;;;;;;;9.84;67.99;98247.75;1821504;78;20392;-66
2021/04/02 02:20:07;;;;;;;;;;;;;;;9.86;67.70;98245.75;1779664;78;20141;-66
2021/04/02 02:22:38;;;;;;;;;;;;;;;9.91;67.59;98243.39;1748221;80;20140;-66
2021/04/02 02:25:08;;;;;;;;;;;;;;;9.94;67.03;98239.56;1758622;80;20240;-66
2021/04/02 02:27:37;;;;;;;;;;;;;;;9.99;66.83;98245.65;1777591;79;20241;-66
2021/04/02 02:30:08;;;;;;;;;;;;;;;10.00;66.63;98237.52;1777443;79;20126;-66
2021/04/02 02:32:37;;;;;;;;;;;;;;;10.01;66.61;98241.00;1757672;80;20126;-66
2021/04/02 02:35:07;;;;;;;;;;;;;;;10.01;66.66;98235.72;1780821;79;20186;-66
2021/04/02 02:37:40;;;;;;;;;;;;;;;9.98;66.63;98234.24;1756447;79;20168;-67
2021/04/02 02:40:12;;;;;;;;;;;;;;;9.96;66.68;98238.88;1786082;79;20155;-67
2021/04/02 02:42:40;;;;;;;;;;;;;;;9.93;66.68;98235.78;1781309;79;20612;-66
2021/04/02 02:45:10;;;;;;;;;;;;;;;9.88;66.96;98227.91;1766085;80;20222;-67
2021/04/02 02:47:39;;;;;;;;;;;;;;;9.83;66.55;98233.40;1784045;79;20179;-66
2021/04/02 02:50:13;;;;;;;;;;;;;;;9.78;66.26;98235.74;1794287;79;20163;-66
2021/04/02 02:52:41;;;;;;;;;;;;;;;9.73;66.07;98234.97;1783554;79;20230;-67
2021/04/02 02:55:11;;;;;;;;;;;;;;;9.69;65.57;98234.50;1776624;79;20162;-66
2021/04/02 02:57:39;;;;;;;;;;;;;;;9.66;65.49;98234.84;1756122;79;20139;-67
2021/04/02 03:00:13;;;;;;;;;;;;;;;9.63;65.52;98233.91;1798782;79;20222;-65
2021/04/02 03:02:41;;;;;;;;;;;;;;;9.62;65.39;98255.19;1751933;80;20246;-66
2021/04/02 03:05:09;;;;;;;;;;;;;;;9.59;65.36;98244.47;1763872;79;20234;-67
2021/04/02 03:07:37;;;;;;;;;;;;;;;9.58;65.31;98252.58;1789106;79;20146;-67
2021/04/02 03:10:08;;;;;;;;;;;;;;;9.56;65.33;98246.63;1768202;79;20214;-67
2021/04/02 03:12:36;;;;;;;;;;;;;;;9.51;65.26;98246.67;1792207;79;20414;-67
2021/04/02 03:15:05;;;;;;;;;;;;;;;9.50;65.29;98250.80;1784021;79;20230;-67
2021/04/02 03:17:35;;;;;;;;;;;;;;;9.48;65.32;98249.68;1792443;79;20325;-67
2021/04/02 03:20:07;;;;;;;;;;;;;;;9.46;65.34;98249.04;1757356;79;20262;-67
2021/04/02 03:22:35;;;;;;;;;;;;;;;9.45;65.37;98242.11;1756001;79;20144;-67
2021/04/02 03:25:13;;;;;;;;;;;;;;;9.43;65.31;98234.86;1777279;79;20127;-67
2021/04/02 03:27:48;;;;;;;;;;;;;;;9.42;65.50;98238.99;1781224;79;20131;-68
2021/04/02 03:30:19;;;;;;;;;;;;;;;9.39;65.17;98245.45;1786499;79;20151;-68
2021/04/02 03:32:50;;;;;;;;;;;;;;;9.37;65.36;98244.81;1784294;79;20414;-68
2021/04/02 03:35:18;;;;;;;;;;;;;;;9.35;65.20;98247.28;1789202;79;20451;-67
2021/04/02 03:37:47;;;;;;;;;;;;;;;9.34;65.04;98243.83;1784702;79;20318;-68
2021/04/02 03:40:17;;;;;;;;;;;;;;;9.33;65.11;98242.17;1760229;79;20254;-67
2021/04/02 03:42:46;;;;;;;;;;;;;;;9.31;65.40;98244.17;1782586;79;20138;-67
2021/04/02 03:45:14;;;;;;;;;;;;;;;9.30;65.32;98241.23;1764165;79;20143;-67
2021/04/02 03:47:43;;;;;;;;;;;;;;;9.29;65.26;98240.89;1766860;79;20253;-67
2021/04/02 03:50:13;;;;;;;;;;;;;;;9.28;65.24;98233.48;1753723;79;20148;-67
2021/04/02 03:52:45;;;;;;;;;;;;;;;9.28;65.13;98241.39;1766273;80;20202;-67
2021/04/02 03:55:14;;;;;;;;;;;;;;;9.29;65.03;98248.30;1789301;79;20237;-67
2021/04/02 03:57:43;;;;;;;;;;;;;;;9.30;64.89;98238.59;1791374;79;20254;-68
2021/04/02 04:00:18;;;;;;;;;;;;;;;9.30;64.88;98241.23;1764412;79;20158;-67
2021/04/02 04:02:48;;;;;;;;;;;;;;;9.30;64.57;98233.31;1796093;79;20182;-67
2021/04/02 04:05:17;;;;;;;;;;;;;;;9.28;64.46;98229.52;1762619;80;20234;-67
2021/04/02 04:07:45;;;;;;;;;;;;;;;9.28;64.42;98225.56;1783904;79;20162;-67
2021/04/02 04:10:17;;;;;;;;;;;;;;;9.27;64.21;98222.59;1792409;79;20123;-68
2021/04/02 04:12:48;;;;;;;;;;;;;;;9.27;64.18;98224.42;1796455;79;20557;-68
2021/04/02 04:15:17;;;;;;;;;;;;;;;9.27;64.35;98223.91;1784341;79;20394;-67
2021/04/02 04:17:46;;;;;;;;;;;;;;;9.26;64.41;98228.06;1765703;79;20126;-69
2021/04/02 04:20:16;;;;;;;;;;;;;;;9.25;64.24;98238.28;1767186;79;20146;-69
2021/04/02 04:22:49;;;;;;;;;;;;;;;9.24;64.37;98229.55;1781078;79;20139;-69
2021/04/02 04:25:20;;;;;;;;;;;;;;;9.23;64.00;98221.81;1791225;79;20182;-68
2021/04/02 04:27:48;;;;;;;;;;;;;;;9.23;64.01;98217.86;1783306;79;20406;-69
2021/04/02 04:30:16;;;;;;;;;;;;;;;9.23;64.17;98208.63;1785826;79;20229;-68
2021/04/02 04:32:44;;;;;;;;;;;;;;;9.22;64.24;98214.41;1786576;79;20419;-68
2021/04/02 04:35:16;;;;;;;;;;;;;;;9.23;64.22;98215.22;1789083;79;20131;-68
2021/04/02 04:37:45;;;;;;;;;;;;;;;9.23;64.34;98213.90;1786676;79;20177;-68
2021/04/02 04:40:15;;;;;;;;;;;;;;;9.24;64.16;98214.20;1761440;79;20140;-68
2021/04/02 04:42:44;;;;;;;;;;;;;;;9.24;64.02;98208.93;1765701;79;20151;-68
2021/04/02 04:45:13;;;;;;;;;;;;;;;9.24;64.20;98202.34;1777684;79;20150;-68
2021/04/02 04:47:41;;;;;;;;;;;;;;;9.25;63.98;98201.35;1795898;79;20134;-68
2021/04/02 04:50:10;;;;;;;;;;;;;;;9.25;63.88;98201.35;1779596;79;20127;-68
2021/04/02 04:52:41;;;;;;;;;;;;;;;9.26;63.84;98200.38;1765850;80;20436;-67
2021/04/02 04:55:10;;;;;;;;;;;;;;;9.28;63.90;98199.70;1759094;79;20131;-68
2021/04/02 04:57:37;;;;;;;;;;;;;;;9.30;64.02;98200.34;1799364;79;20151;-68
2021/04/02 05:00:06;;;;;;;;;;;;;;;9.32;64.01;98203.61;1783737;79;20140;-70
2021/04/02 05:02:34;;;;;;;;;;;;;;;9.34;64.23;98204.26;1776572;79;20166;-69
2021/04/02 05:05:03;;;;;;;;;;;;;;;9.37;64.24;98218.91;1781572;79;20254;-68
2021/04/02 05:07:31;;;;;;;;;;;;;;;9.39;64.11;98220.39;1760019;79;20210;-69
2021/04/02 05:09:59;;;;;;;;;;;;;;;9.42;63.87;98223.98;1789765;79;20191;-70
2021/04/02 05:12:26;;;;;;;;;;;;;;;9.45;63.81;98232.87;1794220;79;20131;-68
2021/04/02 05:14:53;;;;;;;;;;;;;;;9.46;63.76;98223.97;1757961;79;20127;-68
2021/04/02 05:17:21;;;;;;;;;;;;;;;9.47;63.80;98214.23;1752932;79;20160;-68
2021/04/02 05:19:50;;;;;;;;;;;;;;;9.48;63.91;98207.46;1776222;79;20170;-69
2021/04/02 05:22:18;;;;;;;;;;;;;;;9.51;64.01;98216.83;1775004;80;20183;-69
2021/04/02 05:24:46;;;;;;;;;;;;;;;9.52;64.30;98210.56;1768769;80;20561;-72
2021/04/02 05:27:13;;;;;;;;;;;;;;;9.55;64.23;98227.85;1788928;80;20662;-71
2021/04/02 05:29:41;;;;;;;;;;;;;;;9.56;64.44;98213.17;1773849;79;20133;-73
2021/04/02 05:32:09;;;;;;;;;;;;;;;9.59;64.63;98212.80;1775881;81;20161;-72
2021/04/02 05:34:36;;;;;;;;;;;;;;;9.63;65.03;98210.63;1741844;81;20228;-73
2021/04/02 05:37:06;;;;;;;;;;;;;;;9.62;65.34;98216.41;1769112;79;20157;-71
2021/04/02 05:39:34;;;;;;;;;;;;;;;9.60;65.89;98226.83;1758341;79;20156;-73
2021/04/02 05:42:04;;;;;;;;;;;;;;;9.59;66.44;98230.45;1793791;79;20225;-72
2021/04/02 05:44:33;;;;;;;;;;;;;;;9.58;67.35;98239.39;1776251;79;20430;-72
2021/04/02 05:47:05;;;;;;;;;;;;;;;9.53;69.36;98224.06;1755815;79;20158;-72
2021/04/02 05:49:32;;;;;;;;;;;;;;;9.48;70.80;98221.12;1796600;79;20170;-72
2021/04/02 05:52:02;;;;;;;;;;;;;;;9.45;73.41;98191.16;1803196;79;20173;-72
2021/04/02 05:54:35;;;;;;;;;;;;;;;9.40;75.52;98169.25;1806785;79;20241;-73
2021/04/02 05:57:04;;;;;;;;;;;;;;;9.39;77.79;98168.94;1807668;79;20206;-71
2021/04/02 05:59:31;;;;;;;;;;;;;;;9.38;79.92;98158.56;1794325;79;20312;-73
2021/04/02 06:01:58;;;;;;;;;;;;;;;9.38;81.56;98111.88;1753010;79;20442;-72
2021/04/02 06:04:26;;;;;;;;;;;;;;;9.34;83.07;98063.13;1770690;79;20287;-73
2021/04/02 06:06:54;;;;;;;;;;;;;;;9.28;84.66;98085.76;1781503;79;20895;-72
2021/04/02 06:09:22;;;;;;;;;;;;;;;9.21;86.08;98094.56;1781107;79;20325;-72
2021/04/02 06:11:49;;;;;;;;;;;;;;;9.17;87.88;98107.80;1777337;80;20143;-73
2021/04/02 06:14:17;;;;;;;;;;;;;;;9.12;88.78;98123.63;1754131;80;20238;-71
2021/04/02 06:16:52;;;;;;;;;;;;;;;9.13;89.89;98127.91;1777552;79;20187;-72
2021/04/02 06:19:20;;;;;;;;;;;;;;;9.22;90.91;98144.98;1789045;80;20518;-72
2021/04/02 06:21:53;;;;;;;;;;;;;;;9.29;92.09;98154.65;1743884;81;20142;-72
2021/04/02 06:24:40;;;;;;;;;;;;;;;9.38;93.28;98142.22;1758531;80;20135;-72
2021/04/02 06:27:10;;;;;;;;;;;;;;;9.46;93.94;98111.83;1780891;80;20198;-72
2021/04/02 06:29:41;;;;;;;;;;;;;;;9.50;94.83;98117.06;1745388;81;20142;-71
2021/04/02 06:32:36;;;;;;;;;;;;;;;9.59;96.33;98147.32;1916476;74;20452;-71
2021/04/02 06:35:11;;;;;;;;;;;;;;;9.60;96.54;98170.09;1858301;75;20430;-70
2021/04/02 06:37:38;;;;;;;;;;;;;;;9.67;96.41;98191.62;1863328;77;20281;-71
2021/04/02 06:40:15;;;;;;;;;;;;;;;9.76;95.58;98204.74;1843390;75;20228;-70
2021/04/02 06:42:43;;;;;;;;;;;;;;;9.74;93.96;98221.27;1821596;78;20444;-69
2021/04/02 06:45:12;;;;;;;;;;;;;;;9.70;93.75;98230.84;1800421;78;20515;-68
2021/04/02 06:47:40;;;;;;;;;;;;;;;9.68;93.68;98229.39;1827660;78;20139;-72
2021/04/02 06:50:25;;;;;;;;;;;;;;;9.63;93.71;98235.70;1821551;78;20540;-71
2021/04/02 06:52:55;;;;;;;;;;;;;;;9.66;93.33;98233.53;1813125;78;20142;-70
2021/04/02 06:55:24;;;;;;;;;;;;;;;9.73;93.55;98241.57;1813904;78;20435;-70
2021/04/02 06:57:52;;;;;;;;;;;;;;;9.75;91.87;98240.08;1826803;78;20137;-70
2021/04/02 07:00:28;;;;;;;;;;;;;;;9.71;91.48;98239.10;1833895;78;20116;-69
2021/04/02 07:02:55;;;;;;;;;;;;;;;9.67;91.60;98251.02;1827340;78;20144;-70
2021/04/02 07:05:25;;;;;;;;;;;;;;;9.59;91.92;98253.70;1807157;78;20305;-69
2021/04/02 07:07:55;;;;;;;;;;;;;;;9.51;92.24;98248.50;1784991;78;20144;-69
2021/04/02 07:10:22;;;;;;;;;;;;;;;9.48;93.01;98252.31;1828023;78;20243;-70
2021/04/02 07:12:52;;;;;;;;;;;;;;;9.50;93.29;98254.28;1830653;78;20128;-70
2021/04/02 07:15:20;;;;;;;;;;;;;;;9.60;93.65;98246.63;1803177;78;20216;-69
2021/04/02 07:17:47;;;;;;;;;;;;;;;9.66;93.97;98261.24;1827817;78;20195;-70
2021/04/02 07:20:16;;;;;;;;;;;;;;;9.66;94.48;98266.52;1826670;78;20194;-71
2021/04/02 07:22:44;;;;;;;;;;;;;;;9.66;95.07;98269.16;1825214;78;20420;-71
2021/04/02 07:25:12;;;;;;;;;;;;;;;9.66;95.67;98268.34;1804918;78;20139;-70
2021/04/02 07:27:39;;;;;;;;;;;;;;;9.66;95.52;98267.84;1767795;78;20149;-69
2021/04/02 07:30:12;;;;;;;;;;;;;;;9.70;95.46;98268.31;1846572;77;20476;-69
2021/04/02 07:32:41;;;;;;;;;;;;;;;9.77;95.54;98269.76;1816446;77;20195;-70
2021/04/02 07:35:16;;;;;;;;;;;;;;;9.82;95.71;98262.95;1833313;77;20135;-68
2021/04/02 07:37:53;;;;;;;;;;;;;;;9.85;95.98;98269.17;1806820;78;20418;-72
2021/04/02 07:40:27;;;;;;;;;;;;;;;9.84;96.53;98274.66;1857418;77;20185;-70
2021/04/02 07:42:57;;;;;;;;;;;;;;;9.83;96.81;98283.05;1813258;78;20294;-71
2021/04/02 07:45:27;;;;;;;;;;;;;;;9.81;96.86;98289.02;1817093;78;20192;-70
2021/04/02 07:48:12;;;;;;;;;;;;;;;9.81;96.80;98289.02;1816487;78;20200;-72
2021/04/02 07:50:47;;;;;;;;;;;;;;;9.83;96.50;98296.25;1817247;77;20232;-69
2021/04/02 07:53:17;;;;;;;;;;;;;;;9.83;95.99;98310.77;1830556;77;20278;-70
2021/04/02 07:56:05;;;;;;;;;;;;;;;9.82;95.75;98315.75;1803073;78;20180;-71
2021/04/02 07:58:33;;;;;;;;;;;;;;;9.76;94.74;98312.47;1840775;77;20900;-70
2021/04/02 08:01:02;;;;;;;;;;;;;;;9.66;93.99;98302.16;1816199;77;20305;-70
2021/04/02 08:03:33;;;;;;;;;;;;;;;9.57;93.18;98305.03;1820256;77;20213;-71
2021/04/02 08:06:07;;;;;;;;;;;;;;;9.45;92.69;98305.44;1834803;77;20173;-71
2021/04/02 08:08:44;;;;;;;;;;;;;;;9.38;92.69;98311.08;1864650;77;20166;-69
2021/04/02 08:11:26;;;;;;;;;;;;;;;9.38;92.72;98311.08;1856644;77;20198;-72
2021/04/02 08:13:59;;;;;;;;;;;;;;;9.36;92.84;98312.25;1855089;77;20161;-70
2021/04/02 08:16:34;;;;;;;;;;;;;;;9.27;92.78;98309.64;1836110;77;20180;-71
2021/04/02 08:19:17;;;;;;;;;;;;;;;9.20;92.66;98322.38;1853506;77;20209;-69
2021/04/02 08:21:53;;;;;;;;;;;;;;;9.09;92.35;98324.42;1851784;77;20135;-71
2021/04/02 08:24:23;;;;;;;;;;;;;;;8.98;92.61;98319.52;1825837;78;20224;-71
2021/04/02 08:26:52;;;;;;;;;;;;;;;8.93;92.88;98317.89;1761251;80;20171;-71
2021/04/02 08:29:21;;;;;;;;;;;;;;;8.89;92.99;98323.18;1747919;80;20206;-71
2021/04/02 08:31:51;;;;;;;;;;;;;;;8.86;93.21;98324.32;1763745;80;20277;-70
2021/04/02 08:34:20;;;;;;;;;;;;;;;8.83;93.64;98325.16;1746729;80;20199;-69
2021/04/02 08:36:51;;;;;;;;;;;;;;;8.80;94.12;98333.42;1702694;83;20212;-70
2021/04/02 08:39:23;;;;;;;;;;;;;;;8.74;94.65;98333.09;1743696;81;20280;-73
2021/04/02 08:41:49;;;;;;;;;;;;;;;8.68;93.98;98342.20;1758579;81;20209;-74
2021/04/02 08:44:17;;;;;;;;;;;;;;;8.64;93.94;98340.86;1753608;81;20297;-72
2021/04/02 08:46:46;;;;;;;;;;;;;;;8.57;93.57;98339.41;1755597;81;20193;-71
2021/04/02 08:49:14;;;;;;;;;;;;;;;8.52;93.63;98348.30;1757292;81;20171;-72
2021/04/02 08:51:47;;;;;;;;;;;;;;;8.46;93.46;98345.84;1764185;81;20159;-72
2021/04/02 08:54:20;;;;;;;;;;;;;;;8.46;93.53;98339.77;1760270;80;20448;-72
2021/04/02 08:56:49;;;;;;;;;;;;;;;8.46;93.52;98342.39;1761243;81;20288;-71
2021/04/02 08:59:18;;;;;;;;;;;;;;;8.42;93.70;98338.45;1758900;81;20208;-71
2021/04/02 09:01:46;;;;;;;;;;;;;;;8.36;93.99;98331.51;1755192;80;20218;-74
2021/04/02 09:04:15;;;;;;;;;;;;;;;8.32;94.52;98339.89;1755210;81;20234;-72
2021/04/02 09:06:43;;;;;;;;;;;;;;;8.28;95.15;98332.81;1758488;81;20292;-71
2021/04/02 09:09:18;;;;;;;;;;;;;;;8.27;95.68;98344.36;1753878;81;20193;-70
2021/04/02 09:11:49;;;;;;;;;;;;;;;8.27;95.85;98336.95;1759585;80;20424;-71
2021/04/02 09:14:17;;;;;;;;;;;;;;;8.30;95.52;98344.03;1753867;81;20177;-71
2021/04/02 09:16:46;;;;;;;;;;;;;;;8.31;95.14;98341.72;1758042;81;20136;-71
2021/04/02 09:19:16;;;;;;;;;;;;;;;8.29;94.97;98345.02;1757431;80;20229;-72
2021/04/02 09:21:45;;;;;;;;;;;;;;;8.27;94.17;98346.99;1738592;81;20203;-70
2021/04/02 09:24:15;;;;;;;;;;;;;;;8.26;92.83;98364.27;1741805;81;20268;-71
2021/04/02 09:26:43;;;;;;;;;;;;;;;8.21;92.58;98363.94;1741136;81;20189;-70
2021/04/02 09:29:12;;;;;;;;;;;;;;;8.17;92.61;98368.70;1755297;80;20197;-72
2021/04/02 09:31:44;;;;;;;;;;;;;;;8.12;92.25;98361.81;1761542;81;20242;-71
2021/04/02 09:34:18;;;;;;;;;;;;;;;8.08;91.42;98371.85;1756660;81;20201;-72
2021/04/02 09:36:47;;;;;;;;;;;;;;;8.06;90.86;98364.61;1729649;81;20160;-71
2021/04/02 09:39:22;;;;;;;;;;;;;;;8.03;90.48;98370.19;1764066;80;20348;-72
2021/04/02 09:41:52;;;;;;;;;;;;;;;8.01;90.86;98370.04;1727765;82;20294;-74
2021/04/02 09:44:22;;;;;;;;;;;;;;;7.97;90.58;98365.09;1736094;81;20489;-73
2021/04/02 09:46:51;;;;;;;;;;;;;;;7.96;90.86;98358.67;1713033;83;20433;-71
2021/04/02 09:49:22;;;;;;;;;;;;;;;7.94;90.80;98364.09;1701125;83;20188;-72
2021/04/02 09:51:51;;;;;;;;;;;;;;;7.92;90.61;98363.44;1725809;82;20179;-71
2021/04/02 09:54:20;;;;;;;;;;;;;;;7.89;91.33;98369.04;1725310;82;20616;-71
2021/04/02 09:56:48;;;;;;;;;;;;;;;7.91;91.92;98363.12;1731741;82;20228;-72
2021/04/02 09:59:15;;;;;;;;;;;;;;;7.98;92.44;98361.95;1731266;82;20213;-70
2021/04/02 10:01:45;;;;;;;;;;;;;;;8.12;91.98;98363.13;1756773;80;20194;-71
2021/04/02 10:04:13;;;;;;;;;;;;;;;8.27;90.46;98368.56;1747205;81;20142;-71
2021/04/02 10:06:42;;;;;;;;;;;;;;;8.46;89.96;98359.02;1705630;82;20195;-70
2021/04/02 10:09:10;;;;;;;;;;;;;;;8.71;89.38;98358.47;1724981;82;20183;-74
2021/04/02 10:11:49;;;;;;;;;;;;;;;8.93;87.34;98367.98;1713663;83;20158;-74
2021/04/02 10:14:18;;;;;;;;;;;;;;;9.08;84.71;98369.41;1727633;82;20255;-73
2021/04/02 10:16:47;;;;;;;;;;;;;;;9.14;83.50;98371.36;1731225;81;20169;-76
2021/04/02 10:19:15;;;;;;;;;;;;;;;9.16;82.38;98373.83;1727975;82;20311;-76
2021/04/02 10:21:46;;;;;;;;;;;;;;;9.06;81.69;98368.77;1725596;82;20499;-74
2021/04/02 10:24:14;;;;;;;;;;;;;;;8.99;81.62;98373.89;1727831;82;20160;-76
2021/04/02 10:26:43;;;;;;;;;;;;;;;8.91;81.32;98376.05;1729416;82;20198;-75
2021/04/02 10:29:10;;;;;;;;;;;;;;;8.85;80.87;98376.73;1733837;82;20138;-79
2021/04/02 10:31:39;;;;;;;;;;;;;;;8.81;80.58;98369.31;1709417;82;20156;-75
2021/04/02 10:34:07;;;;;;;;;;;;;;;8.74;80.76;98381.05;1724624;82;20128;-76
2021/04/02 10:36:35;;;;;;;;;;;;;;;8.68;80.80;98386.49;1712593;82;20301;-78
2021/04/02 10:39:05;;;;;;;;;;;;;;;8.57;80.01;98383.36;1725482;82;20195;-76
2021/04/02 10:41:32;;;;;;;;;;;;;;;8.45;79.99;98378.94;1713903;82;20972;-73
2021/04/02 10:44:00;;;;;;;;;;;;;;;8.31;79.89;98380.41;1749489;80;20418;-76
2021/04/02 10:46:27;;;;;;;;;;;;;;;8.17;79.82;98398.98;1728904;81;20258;-78
2021/04/02 10:48:55;;;;;;;;;;;;;;;8.06;79.65;98398.84;1722213;83;20247;-74
2021/04/02 10:51:25;;;;;;;;;;;;;;;7.95;79.38;98412.32;1737305;81;20472;-77
2021/04/02 10:54:00;;;;;;;;;;;;;;;7.84;79.85;98409.49;1737214;82;20154;-75
2021/04/02 10:56:22;;;;;;;;;;;;;;;7.75;80.53;98399.94;1724471;82;20196;-76
2021/04/02 10:58:50;;;;;;;;;;;;;;;7.66;81.19;98403.03;1720023;83;20402;-77
2021/04/02 11:01:17;;;;;;;;;;;;;;;7.62;81.79;98399.58;1742004;82;20202;-75
2021/04/02 11:03:46;;;;;;;;;;;;;;;7.56;80.86;98395.28;1727660;83;20148;-75
2021/04/02 11:06:15;;;;;;;;;;;;;;;7.45;79.79;98402.15;1734868;82;20202;-75
2021/04/02 11:08:43;;;;;;;;;;;;;;;7.33;79.51;98406.03;1736884;82;20194;-75
2021/04/02 11:11:11;;;;;;;;;;;;;;;7.24;80.31;98409.14;1691303;83;20412;-78
2021/04/02 11:13:39;;;;;;;;;;;;;;;7.12;81.00;98409.07;1717834;83;20148;-76
2021/04/02 11:16:07;;;;;;;;;;;;;;;7.03;81.56;98413.45;1722635;82;20159;-72
2021/04/02 11:18:35;;;;;;;;;;;;;;;6.98;81.87;98407.86;1733453;82;20146;-82
2021/04/02 11:21:04;;;;;;;;;;;;;;;6.91;83.26;98414.22;1737130;82;20199;-74
2021/04/02 11:23:32;;;;;;;;;;;;;;;6.85;83.93;98417.98;1702089;83;20204;-76
2021/04/02 11:26:01;;;;;;;;;;;;;;;6.82;84.50;98420.41;1728377;82;20213;-74
2021/04/02 11:28:29;;;;;;;;;;;;;;;6.85;85.03;98429.80;1758291;82;20409;-75
2021/04/02 11:30:57;;;;;;;;;;;;;;;6.86;84.87;98416.48;1726725;83;20228;-75
2021/04/02 11:33:25;;;;;;;;;;;;;;;6.85;84.56;98419.29;1728608;81;20254;-73
2021/04/02 11:35:55;;;;;;;;;;;;;;;6.82;83.99;98415.64;1736395;82;20142;-73
2021/04/02 11:38:23;;;;;;;;;;;;;;;6.80;84.37;98421.87;1713014;82;20148;-72
2021/04/02 11:40:51;;;;;;;;;;;;;;;6.80;84.28;98426.30;1743314;82;20151;-71
2021/04/02 11:43:19;;;;;;;;;;;;;;;6.79;84.13;98428.12;1735707;82;20460;-74
2021/04/02 11:45:48;;;;;;;;;;;;;;;6.74;84.36;98433.50;1708649;83;20144;-72
2021/04/02 11:48:16;;;;;;;;;;;;;;;6.69;84.95;98435.26;1740783;82;20162;-72
2021/04/02 11:50:44;;;;;;;;;;;;;;;6.65;84.52;98435.23;1745536;81;20167;-72
2021/04/02 11:53:12;;;;;;;;;;;;;;;6.65;84.16;98438.36;1706580;82;20190;-73
2021/04/02 11:55:41;;;;;;;;;;;;;;;6.69;83.66;98441.83;1699535;83;20189;-72
2021/04/02 11:58:09;;;;;;;;;;;;;;;6.70;83.18;98430.35;1707444;83;20173;-73
2021/04/02 12:00:36;;;;;;;;;;;;;;;6.67;82.85;98428.02;1721781;82;20235;-74
2021/04/02 12:03:04;;;;;;;;;;;;;;;6.67;82.63;98431.96;1708903;82;20223;-70
2021/04/02 12:05:32;;;;;;;;;;;;;;;6.68;83.37;98438.87;1724640;83;20176;-72
2021/04/02 12:07:59;;;;;;;;;;;;;;;6.71;82.85;98430.67;1740674;82;20139;-72
2021/04/02 12:10:27;;;;;;;;;;;;;;;6.72;82.28;98450.72;1740737;82;20126;-72
2021/04/02 12:12:55;;;;;;;;;;;;;;;6.72;82.47;98449.41;1741847;82;20281;-74
2021/04/02 12:15:22;;;;;;;;;;;;;;;6.71;82.97;98448.25;1737500;82;20152;-75
2021/04/02 12:17:50;;;;;;;;;;;;;;;6.75;82.84;98453.06;1736861;82;20170;-73
2021/04/02 12:20:18;;;;;;;;;;;;;;;6.83;83.21;98444.87;1718623;83;20514;-72
2021/04/02 12:22:46;;;;;;;;;;;;;;;6.89;82.96;98449.53;1743186;82;20165;-71
2021/04/02 12:25:15;;;;;;;;;;;;;;;6.99;82.56;98449.77;1738368;82;20171;-72
2021/04/02 12:27:42;;;;;;;;;;;;;;;7.02;81.14;98456.51;1732406;82;20404;-71
2021/04/02 12:30:12;;;;;;;;;;;;;;;7.03;80.34;98454.70;1733905;82;20236;-73
2021/04/02 12:32:39;;;;;;;;;;;;;;;7.03;80.15;98467.34;1734018;82;20131;-74
2021/04/02 12:35:08;;;;;;;;;;;;;;;7.00;79.92;98474.24;1735143;82;20149;-71
2021/04/02 12:37:35;;;;;;;;;;;;;;;6.96;79.72;98467.16;1719347;82;20247;-73
2021/04/02 12:40:10;;;;;;;;;;;;;;;6.92;79.32;98475.48;1708723;83;20287;-72
2021/04/02 12:42:37;;;;;;;;;;;;;;;6.87;79.20;98477.77;1705651;82;20144;-72
2021/04/02 12:45:07;;;;;;;;;;;;;;;6.80;79.42;98479.67;1743115;82;20257;-72
2021/04/02 12:47:35;;;;;;;;;;;;;;;6.73;79.28;98492.27;1696673;82;20190;-73
2021/04/02 12:50:06;;;;;;;;;;;;;;;6.74;79.60;98484.23;1744456;81;20134;-71
2021/04/02 12:52:34;;;;;;;;;;;;;;;6.75;79.74;98483.27;1743561;81;20276;-73
2021/04/02 12:55:03;;;;;;;;;;;;;;;6.79;79.53;98489.05;1702711;83;20167;-73
2021/04/02 12:57:31;;;;;;;;;;;;;;;6.76;78.99;98491.48;1738227;82;20142;-72
2021/04/02 12:59:58;;;;;;;;;;;;;;;6.71;79.07;98496.85;1720175;82;20126;-71
2021/04/02 13:02:25;;;;;;;;;;;;;;;6.64;79.24;98496.66;1712967;82;20136;-74
2021/04/02 13:04:53;;;;;;;;;;;;;;;6.56;79.18;98496.56;1743183;82;20409;-74
2021/04/02 13:07:20;;;;;;;;;;;;;;;6.46;79.53;98497.96;1698654;83;20147;-73